Accueil
METAR-TAF:

METAR-TAF

Aéroports :

Aéroport international de N'Djaména

Ndjamena, Tchad

latitude: 12-08N, longitude: 015-02E, altitude: 295 m

Observation

Le bulletin a été fait il y a 50 minutes, à 03:00 UTC
Vent 7 kt de sud
Température 28°C
Humidité 70%
Pression 1010 hPa
Visibilité 10 km ou plus
pas de nuages en-dessous de 1500 mètres et pas de cumulonimbus.

METAR: FTTJ 070300Z 19007KT CAVOK 28/22 Q1010 NOSIG

Heure: 04:50 (03:50 UTC)

Prévision

Le bulletin a été fait il y a 4 heures et 50 minutes, à 23:00 UTC
Prévision valable du 07 à 00 UTC au 08 à 06 UTC
Vent 6 kt de sud
Visibilité: 8000 m
Probabilité 30% :
Temporairement
du 07 à 15 UTC au 07 à 20 UTC
Vent 16 kt de direction variable avec des rafales jusqu'à 30 kt
Chasse-poussière élevée, orage

TAF: FTTJ 062300Z 0700/0806 18006KT 8000 NSC PROB30 TEMPO 0715/0720 VRB16G30KT4000 BLDU TS

Observations et prévisions météorologiques de plus de 4000 aéroports (messages METAR et TAF).

Les stations disponibles sont représentées par des disques jaunes et rouges sur la carte.

Passer la souris dessus pour voir le nom de la station.

Cliquer dessus pour voir les observations et prévisions météorologiques.

Pour changer de carte: cliquez sur les boutons verts avec une croix noire pour zoomer, sur le bouton vert avec un tiret pour effectuer un zoom arrière, ou sur les flèches vertes pour les cartes adjacentes.


METAR-TAF: